sensor_id;sensor_type;location;lat;lon;timestamp;P1;P2;P0
50321;PMS5003;36227;53.366;-1.426;2023-04-24T00:00:32;9;9;
50321;PMS5003;36227;53.366;-1.426;2023-04-24T00:02:58;9;9;
50321;PMS5003;36227;53.366;-1.426;2023-04-24T00:05:23;14;13;
50321;PMS5003;36227;53.366;-1.426;2023-04-24T00:07:48;9;7;
50321;PMS5003;36227;53.366;-1.426;2023-04-24T00:10:14;5;5;
50321;PMS5003;36227;53.366;-1.426;2023-04-24T00:12:39;11;7;
50321;PMS5003;36227;53.366;-1.426;2023-04-24T00:15:06;5;5;
50321;PMS5003;36227;53.366;-1.426;2023-04-24T00:17:30;7;6;
50321;PMS5003;36227;53.366;-1.426;2023-04-24T00:19:55;6;6;
50321;PMS5003;36227;53.366;-1.426;2023-04-24T00:22:21;5;5;
50321;PMS5003;36227;53.366;-1.426;2023-04-24T00:24:46;4;3;
50321;PMS5003;36227;53.366;-1.426;2023-04-24T00:27:11;4;4;
50321;PMS5003;36227;53.366;-1.426;2023-04-24T00:29:37;7;6;
50321;PMS5003;36227;53.366;-1.426;2023-04-24T00:32:01;4;4;
50321;PMS5003;36227;53.366;-1.426;2023-04-24T00:34:27;6;6;
50321;PMS5003;36227;53.366;-1.426;2023-04-24T00:36:52;5;5;
50321;PMS5003;36227;53.366;-1.426;2023-04-24T00:39:17;4;3;
50321;PMS5003;36227;53.366;-1.426;2023-04-24T00:41:43;6;6;
50321;PMS5003;36227;53.366;-1.426;2023-04-24T00:44:08;7;7;
50321;PMS5003;36227;53.366;-1.426;2023-04-24T00:46:34;4;4;
50321;PMS5003;36227;53.366;-1.426;2023-04-24T00:48:59;8;6;
50321;PMS5003;36227;53.366;-1.426;2023-04-24T00:51:24;5;5;
50321;PMS5003;36227;53.366;-1.426;2023-04-24T00:53:50;7;7;
50321;PMS5003;36227;53.366;-1.426;2023-04-24T00:56:15;4;4;
50321;PMS5003;36227;53.366;-1.426;2023-04-24T00:58:40;5;4;
50321;PMS5003;36227;53.366;-1.426;2023-04-24T01:01:06;4;4;
50321;PMS5003;36227;53.366;-1.426;2023-04-24T01:03:31;5;5;
50321;PMS5003;36227;53.366;-1.426;2023-04-24T01:05:56;7;6;
50321;PMS5003;36227;53.366;-1.426;2023-04-24T01:08:22;4;4;
50321;PMS5003;36227;53.366;-1.426;2023-04-24T01:10:47;5;3;
50321;PMS5003;36227;53.366;-1.426;2023-04-24T01:13:12;7;6;
50321;PMS5003;36227;53.366;-1.426;2023-04-24T01:15:37;5;5;
50321;PMS5003;36227;53.366;-1.426;2023-04-24T01:18:03;7;5;
50321;PMS5003;36227;53.366;-1.426;2023-04-24T01:20:29;4;4;
50321;PMS5003;36227;53.366;-1.426;2023-04-24T01:22:55;2;2;
50321;PMS5003;36227;53.366;-1.426;2023-04-24T01:25:20;5;4;
50321;PMS5003;36227;53.366;-1.426;2023-04-24T01:27:45;4;4;
50321;PMS5003;36227;53.366;-1.426;2023-04-24T01:30:11;4;3;
50321;PMS5003;36227;53.366;-1.426;2023-04-24T01:32:37;5;4;
50321;PMS5003;36227;53.366;-1.426;2023-04-24T01:35:02;4;4;
50321;PMS5003;36227;53.366;-1.426;2023-04-24T01:37:27;4;3;
50321;PMS5003;36227;53.366;-1.426;2023-04-24T01:39:53;2;2;
50321;PMS5003;36227;53.366;-1.426;2023-04-24T01:42:18;6;4;
50321;PMS5003;36227;53.366;-1.426;2023-04-24T01:44:43;5;3;
50321;PMS5003;36227;53.366;-1.426;2023-04-24T01:47:09;4;4;
50321;PMS5003;36227;53.366;-1.426;2023-04-24T01:49:34;5;4;
50321;PMS5003;36227;53.366;-1.426;2023-04-24T01:51:59;4;3;
50321;PMS5003;36227;53.366;-1.426;2023-04-24T01:54:24;4;3;
50321;PMS5003;36227;53.366;-1.426;2023-04-24T01:56:49;3;3;
50321;PMS5003;36227;53.366;-1.426;2023-04-24T01:59:15;3;3;
50321;PMS5003;36227;53.366;-1.426;2023-04-24T02:01:40;3;3;
50321;PMS5003;36227;53.366;-1.426;2023-04-24T02:04:05;4;2;
50321;PMS5003;36227;53.366;-1.426;2023-04-24T02:06:30;3;3;
50321;PMS5003;36227;53.366;-1.426;2023-04-24T02:08:56;5;3;
50321;PMS5003;36227;53.366;-1.426;2023-04-24T02:11:21;3;3;
50321;PMS5003;36227;53.366;-1.426;2023-04-24T02:13:46;6;5;
50321;PMS5003;36227;53.366;-1.426;2023-04-24T02:16:11;7;4;
50321;PMS5003;36227;53.366;-1.426;2023-04-24T02:18:37;5;3;
50321;PMS5003;36227;53.366;-1.426;2023-04-24T02:21:02;6;5;
50321;PMS5003;36227;53.366;-1.426;2023-04-24T02:23:28;3;3;
50321;PMS5003;36227;53.366;-1.426;2023-04-24T02:25:53;4;4;
50321;PMS5003;36227;53.366;-1.426;2023-04-24T02:28:19;8;6;
50321;PMS5003;36227;53.366;-1.426;2023-04-24T02:30:44;3;3;
50321;PMS5003;36227;53.366;-1.426;2023-04-24T02:33:09;5;3;
50321;PMS5003;36227;53.366;-1.426;2023-04-24T02:35:34;2;2;
50321;PMS5003;36227;53.366;-1.426;2023-04-24T02:38:00;3;3;
50321;PMS5003;36227;53.366;-1.426;2023-04-24T02:40:25;4;4;
50321;PMS5003;36227;53.366;-1.426;2023-04-24T02:42:50;6;4;
50321;PMS5003;36227;53.366;-1.426;2023-04-24T02:45:16;3;3;
50321;PMS5003;36227;53.366;-1.426;2023-04-24T02:47:41;5;3;
50321;PMS5003;36227;53.366;-1.426;2023-04-24T02:50:07;3;3;
50321;PMS5003;36227;53.366;-1.426;2023-04-24T02:52:32;3;3;
50321;PMS5003;36227;53.366;-1.426;2023-04-24T02:54:57;2;2;
50321;PMS5003;36227;53.366;-1.426;2023-04-24T02:57:23;2;2;
50321;PMS5003;36227;53.366;-1.426;2023-04-24T02:59:48;4;3;
50321;PMS5003;36227;53.366;-1.426;2023-04-24T03:02:13;2;2;
50321;PMS5003;36227;53.366;-1.426;2023-04-24T03:04:39;8;6;
50321;PMS5003;36227;53.366;-1.426;2023-04-24T03:07:04;4;3;
50321;PMS5003;36227;53.366;-1.426;2023-04-24T03:09:30;7;7;
50321;PMS5003;36227;53.366;-1.426;2023-04-24T03:11:55;3;3;
50321;PMS5003;36227;53.366;-1.426;2023-04-24T03:14:20;5;4;
50321;PMS5003;36227;53.366;-1.426;2023-04-24T03:16:46;3;3;
50321;PMS5003;36227;53.366;-1.426;2023-04-24T03:19:11;3;3;
50321;PMS5003;36227;53.366;-1.426;2023-04-24T03:21:37;3;3;
50321;PMS5003;36227;53.366;-1.426;2023-04-24T03:24:02;5;5;
50321;PMS5003;36227;53.366;-1.426;2023-04-24T03:26:27;3;2;
50321;PMS5003;36227;53.366;-1.426;2023-04-24T03:28:52;3;3;
50321;PMS5003;36227;53.366;-1.426;2023-04-24T03:31:18;4;4;
50321;PMS5003;36227;53.366;-1.426;2023-04-24T03:33:43;3;3;
50321;PMS5003;36227;53.366;-1.426;2023-04-24T03:36:08;4;4;
50321;PMS5003;36227;53.366;-1.426;2023-04-24T03:38:33;3;3;
50321;PMS5003;36227;53.366;-1.426;2023-04-24T03:40:59;3;2;
50321;PMS5003;36227;53.366;-1.426;2023-04-24T03:43:24;3;3;
50321;PMS5003;36227;53.366;-1.426;2023-04-24T03:45:49;3;3;
50321;PMS5003;36227;53.366;-1.426;2023-04-24T03:48:14;4;4;
50321;PMS5003;36227;53.366;-1.426;2023-04-24T03:50:40;3;3;
50321;PMS5003;36227;53.366;-1.426;2023-04-24T03:53:05;4;4;
50321;PMS5003;36227;53.366;-1.426;2023-04-24T03:55:31;6;6;
50321;PMS5003;36227;53.366;-1.426;2023-04-24T03:57:56;9;7;
50321;PMS5003;36227;53.366;-1.426;2023-04-24T04:00:22;5;5;
50321;PMS5003;36227;53.366;-1.426;2023-04-24T04:02:47;2;2;
50321;PMS5003;36227;53.366;-1.426;2023-04-24T04:05:12;5;5;
50321;PMS5003;36227;53.366;-1.426;2023-04-24T04:07:38;2;2;
50321;PMS5003;36227;53.366;-1.426;2023-04-24T04:10:05;5;5;
50321;PMS5003;36227;53.366;-1.426;2023-04-24T04:12:30;6;4;
50321;PMS5003;36227;53.366;-1.426;2023-04-24T04:14:55;7;7;
50321;PMS5003;36227;53.366;-1.426;2023-04-24T04:17:20;5;5;
50321;PMS5003;36227;53.366;-1.426;2023-04-24T04:19:45;5;4;
50321;PMS5003;36227;53.366;-1.426;2023-04-24T04:22:11;3;3;
50321;PMS5003;36227;53.366;-1.426;2023-04-24T04:24:36;5;5;
50321;PMS5003;36227;53.366;-1.426;2023-04-24T04:27:02;3;3;
50321;PMS5003;36227;53.366;-1.426;2023-04-24T04:29:27;3;3;
50321;PMS5003;36227;53.366;-1.426;2023-04-24T04:31:52;4;4;
50321;PMS5003;36227;53.366;-1.426;2023-04-24T04:34:17;3;3;
50321;PMS5003;36227;53.366;-1.426;2023-04-24T04:36:43;4;4;
50321;PMS5003;36227;53.366;-1.426;2023-04-24T04:39:08;2;2;
50321;PMS5003;36227;53.366;-1.426;2023-04-24T04:41:33;3;3;
50321;PMS5003;36227;53.366;-1.426;2023-04-24T04:43:59;5;4;
50321;PMS5003;36227;53.366;-1.426;2023-04-24T04:46:24;6;5;
50321;PMS5003;36227;53.366;-1.426;2023-04-24T04:48:50;3;3;
50321;PMS5003;36227;53.366;-1.426;2023-04-24T04:51:15;4;4;
50321;PMS5003;36227;53.366;-1.426;2023-04-24T04:53:41;5;5;
50321;PMS5003;36227;53.366;-1.426;2023-04-24T04:56:06;4;4;
50321;PMS5003;36227;53.366;-1.426;2023-04-24T04:58:31;5;4;
50321;PMS5003;36227;53.366;-1.426;2023-04-24T05:00:56;3;3;
50321;PMS5003;36227;53.366;-1.426;2023-04-24T05:03:22;6;5;
50321;PMS5003;36227;53.366;-1.426;2023-04-24T05:05:48;4;4;
50321;PMS5003;36227;53.366;-1.426;2023-04-24T05:08:13;5;4;
50321;PMS5003;36227;53.366;-1.426;2023-04-24T05:10:39;6;5;
50321;PMS5003;36227;53.366;-1.426;2023-04-24T05:13:04;5;4;
50321;PMS5003;36227;53.366;-1.426;2023-04-24T05:15:29;5;4;
50321;PMS5003;36227;53.366;-1.426;2023-04-24T05:17:55;5;5;
50321;PMS5003;36227;53.366;-1.426;2023-04-24T05:20:21;7;7;
50321;PMS5003;36227;53.366;-1.426;2023-04-24T05:22:47;8;6;
50321;PMS5003;36227;53.366;-1.426;2023-04-24T05:25:12;5;5;
50321;PMS5003;36227;53.366;-1.426;2023-04-24T05:27:37;3;3;
50321;PMS5003;36227;53.366;-1.426;2023-04-24T05:30:03;4;4;
50321;PMS5003;36227;53.366;-1.426;2023-04-24T05:32:28;6;5;
50321;PMS5003;36227;53.366;-1.426;2023-04-24T05:34:53;5;3;
50321;PMS5003;36227;53.366;-1.426;2023-04-24T05:37:18;7;6;
50321;PMS5003;36227;53.366;-1.426;2023-04-24T05:39:44;4;4;
50321;PMS5003;36227;53.366;-1.426;2023-04-24T05:42:09;3;2;
50321;PMS5003;36227;53.366;-1.426;2023-04-24T05:44:34;4;4;
50321;PMS5003;36227;53.366;-1.426;2023-04-24T05:46:59;4;4;
50321;PMS5003;36227;53.366;-1.426;2023-04-24T05:49:25;8;5;
50321;PMS5003;36227;53.366;-1.426;2023-04-24T05:51:50;6;6;
50321;PMS5003;36227;53.366;-1.426;2023-04-24T05:54:15;4;4;
50321;PMS5003;36227;53.366;-1.426;2023-04-24T05:56:41;6;5;
50321;PMS5003;36227;53.366;-1.426;2023-04-24T05:59:07;4;4;
50321;PMS5003;36227;53.366;-1.426;2023-04-24T06:01:32;4;3;
50321;PMS5003;36227;53.366;-1.426;2023-04-24T06:03:57;4;4;
50321;PMS5003;36227;53.366;-1.426;2023-04-24T06:06:23;7;7;
50321;PMS5003;36227;53.366;-1.426;2023-04-24T06:08:48;5;4;
50321;PMS5003;36227;53.366;-1.426;2023-04-24T06:11:13;7;5;
50321;PMS5003;36227;53.366;-1.426;2023-04-24T06:13:39;5;5;
50321;PMS5003;36227;53.366;-1.426;2023-04-24T06:16:04;4;4;
50321;PMS5003;36227;53.366;-1.426;2023-04-24T06:18:29;7;5;
50321;PMS5003;36227;53.366;-1.426;2023-04-24T06:20:55;6;6;
50321;PMS5003;36227;53.366;-1.426;2023-04-24T06:23:20;7;7;
50321;PMS5003;36227;53.366;-1.426;2023-04-24T06:25:45;9;8;
50321;PMS5003;36227;53.366;-1.426;2023-04-24T06:28:11;7;7;
50321;PMS5003;36227;53.366;-1.426;2023-04-24T06:30:36;9;7;
50321;PMS5003;36227;53.366;-1.426;2023-04-24T06:33:02;6;6;
50321;PMS5003;36227;53.366;-1.426;2023-04-24T06:35:27;6;6;
50321;PMS5003;36227;53.366;-1.426;2023-04-24T06:37:52;6;5;
50321;PMS5003;36227;53.366;-1.426;2023-04-24T06:40:18;8;7;
50321;PMS5003;36227;53.366;-1.426;2023-04-24T06:42:44;5;5;
50321;PMS5003;36227;53.366;-1.426;2023-04-24T06:45:10;8;8;
50321;PMS5003;36227;53.366;-1.426;2023-04-24T06:47:35;6;6;
50321;PMS5003;36227;53.366;-1.426;2023-04-24T06:50:00;7;7;
50321;PMS5003;36227;53.366;-1.426;2023-04-24T06:52:26;8;8;
50321;PMS5003;36227;53.366;-1.426;2023-04-24T06:54:51;5;5;
50321;PMS5003;36227;53.366;-1.426;2023-04-24T06:57:17;7;7;
50321;PMS5003;36227;53.366;-1.426;2023-04-24T06:59:42;8;8;
50321;PMS5003;36227;53.366;-1.426;2023-04-24T07:02:07;8;8;
50321;PMS5003;36227;53.366;-1.426;2023-04-24T07:04:32;8;7;
50321;PMS5003;36227;53.366;-1.426;2023-04-24T07:06:58;10;8;
50321;PMS5003;36227;53.366;-1.426;2023-04-24T07:09:24;8;8;
50321;PMS5003;36227;53.366;-1.426;2023-04-24T07:11:49;10;7;
50321;PMS5003;36227;53.366;-1.426;2023-04-24T07:14:14;9;9;
50321;PMS5003;36227;53.366;-1.426;2023-04-24T07:16:39;9;8;
50321;PMS5003;36227;53.366;-1.426;2023-04-24T07:19:04;10;7;
50321;PMS5003;36227;53.366;-1.426;2023-04-24T07:21:30;16;14;
50321;PMS5003;36227;53.366;-1.426;2023-04-24T07:23:56;10;9;
50321;PMS5003;36227;53.366;-1.426;2023-04-24T07:26:21;8;8;
50321;PMS5003;36227;53.366;-1.426;2023-04-24T07:28:46;12;9;
50321;PMS5003;36227;53.366;-1.426;2023-04-24T07:31:12;11;10;
50321;PMS5003;36227;53.366;-1.426;2023-04-24T07:33:38;16;11;
50321;PMS5003;36227;53.366;-1.426;2023-04-24T07:36:04;7;7;
50321;PMS5003;36227;53.366;-1.426;2023-04-24T07:38:29;8;8;
50321;PMS5003;36227;53.366;-1.426;2023-04-24T07:40:55;8;8;
50321;PMS5003;36227;53.366;-1.426;2023-04-24T07:43:20;7;7;
50321;PMS5003;36227;53.366;-1.426;2023-04-24T07:45:46;7;7;
50321;PMS5003;36227;53.366;-1.426;2023-04-24T07:48:11;9;9;
50321;PMS5003;36227;53.366;-1.426;2023-04-24T07:50:37;11;8;
50321;PMS5003;36227;53.366;-1.426;2023-04-24T07:53:02;11;11;
50321;PMS5003;36227;53.366;-1.426;2023-04-24T07:55:28;9;8;
50321;PMS5003;36227;53.366;-1.426;2023-04-24T07:57:53;8;8;
50321;PMS5003;36227;53.366;-1.426;2023-04-24T08:00:18;10;7;
50321;PMS5003;36227;53.366;-1.426;2023-04-24T08:02:44;8;6;
50321;PMS5003;36227;53.366;-1.426;2023-04-24T08:05:09;9;8;
50321;PMS5003;36227;53.366;-1.426;2023-04-24T08:07:34;6;6;
50321;PMS5003;36227;53.366;-1.426;2023-04-24T08:09:59;11;8;
50321;PMS5003;36227;53.366;-1.426;2023-04-24T08:12:25;10;8;
50321;PMS5003;36227;53.366;-1.426;2023-04-24T08:14:50;8;8;
50321;PMS5003;36227;53.366;-1.426;2023-04-24T08:17:16;9;8;
50321;PMS5003;36227;53.366;-1.426;2023-04-24T08:19:41;9;8;
50321;PMS5003;36227;53.366;-1.426;2023-04-24T08:22:07;6;6;
50321;PMS5003;36227;53.366;-1.426;2023-04-24T08:24:32;10;10;
50321;PMS5003;36227;53.366;-1.426;2023-04-24T08:26:57;8;6;
50321;PMS5003;36227;53.366;-1.426;2023-04-24T08:29:23;7;7;
50321;PMS5003;36227;53.366;-1.426;2023-04-24T08:31:48;7;7;
50321;PMS5003;36227;53.366;-1.426;2023-04-24T08:34:14;10;8;
50321;PMS5003;36227;53.366;-1.426;2023-04-24T08:36:39;7;7;
50321;PMS5003;36227;53.366;-1.426;2023-04-24T08:39:05;8;7;
50321;PMS5003;36227;53.366;-1.426;2023-04-24T08:41:30;9;9;
50321;PMS5003;36227;53.366;-1.426;2023-04-24T08:43:56;8;8;
50321;PMS5003;36227;53.366;-1.426;2023-04-24T08:46:21;8;6;
50321;PMS5003;36227;53.366;-1.426;2023-04-24T08:48:46;8;7;
50321;PMS5003;36227;53.366;-1.426;2023-04-24T08:51:12;8;8;
50321;PMS5003;36227;53.366;-1.426;2023-04-24T08:53:37;9;8;
50321;PMS5003;36227;53.366;-1.426;2023-04-24T08:56:02;9;8;
50321;PMS5003;36227;53.366;-1.426;2023-04-24T08:58:28;12;12;
50321;PMS5003;36227;53.366;-1.426;2023-04-24T09:00:54;9;9;
50321;PMS5003;36227;53.366;-1.426;2023-04-24T09:03:19;10;8;
50321;PMS5003;36227;53.366;-1.426;2023-04-24T09:05:46;11;10;
50321;PMS5003;36227;53.366;-1.426;2023-04-24T09:08:10;13;13;
50321;PMS5003;36227;53.366;-1.426;2023-04-24T09:10:35;11;11;
50321;PMS5003;36227;53.366;-1.426;2023-04-24T09:13:00;8;7;
50321;PMS5003;36227;53.366;-1.426;2023-04-24T09:15:26;8;8;
50321;PMS5003;36227;53.366;-1.426;2023-04-24T09:17:51;9;8;
50321;PMS5003;36227;53.366;-1.426;2023-04-24T09:20:16;7;7;
50321;PMS5003;36227;53.366;-1.426;2023-04-24T09:22:42;11;8;
50321;PMS5003;36227;53.366;-1.426;2023-04-24T09:25:07;10;9;
50321;PMS5003;36227;53.366;-1.426;2023-04-24T09:27:33;12;10;
50321;PMS5003;36227;53.366;-1.426;2023-04-24T09:29:58;16;11;
50321;PMS5003;36227;53.366;-1.426;2023-04-24T09:32:23;9;9;
50321;PMS5003;36227;53.366;-1.426;2023-04-24T09:34:48;9;9;
50321;PMS5003;36227;53.366;-1.426;2023-04-24T09:37:18;9;9;
50321;PMS5003;36227;53.366;-1.426;2023-04-24T09:39:39;9;8;
50321;PMS5003;36227;53.366;-1.426;2023-04-24T09:42:04;9;8;
50321;PMS5003;36227;53.366;-1.426;2023-04-24T09:44:30;10;9;
50321;PMS5003;36227;53.366;-1.426;2023-04-24T09:46:56;11;9;
50321;PMS5003;36227;53.366;-1.426;2023-04-24T09:49:22;12;10;
50321;PMS5003;36227;53.366;-1.426;2023-04-24T09:51:46;12;10;
50321;PMS5003;36227;53.366;-1.426;2023-04-24T09:54:14;8;8;
50321;PMS5003;36227;53.366;-1.426;2023-04-24T09:56:37;10;9;
50321;PMS5003;36227;53.366;-1.426;2023-04-24T09:59:05;6;6;
50321;PMS5003;36227;53.366;-1.426;2023-04-24T10:01:29;8;8;
50321;PMS5003;36227;53.366;-1.426;2023-04-24T10:03:52;8;8;
50321;PMS5003;36227;53.366;-1.426;2023-04-24T10:06:18;10;8;
50321;PMS5003;36227;53.366;-1.426;2023-04-24T10:08:43;8;8;
50321;PMS5003;36227;53.366;-1.426;2023-04-24T10:11:08;7;7;
50321;PMS5003;36227;53.366;-1.426;2023-04-24T10:13:34;8;7;
50321;PMS5003;36227;53.366;-1.426;2023-04-24T10:15:59;8;8;
50321;PMS5003;36227;53.366;-1.426;2023-04-24T10:18:24;10;8;
50321;PMS5003;36227;53.366;-1.426;2023-04-24T10:20:50;8;8;
50321;PMS5003;36227;53.366;-1.426;2023-04-24T10:23:15;8;8;
50321;PMS5003;36227;53.366;-1.426;2023-04-24T10:25:40;8;8;
50321;PMS5003;36227;53.366;-1.426;2023-04-24T10:28:05;8;8;
50321;PMS5003;36227;53.366;-1.426;2023-04-24T10:30:32;8;7;
50321;PMS5003;36227;53.366;-1.426;2023-04-24T10:32:56;10;6;
50321;PMS5003;36227;53.366;-1.426;2023-04-24T10:35:22;10;9;
50321;PMS5003;36227;53.366;-1.426;2023-04-24T10:37:48;7;7;
50321;PMS5003;36227;53.366;-1.426;2023-04-24T10:40:17;8;7;
50321;PMS5003;36227;53.366;-1.426;2023-04-24T10:42:39;8;7;
50321;PMS5003;36227;53.366;-1.426;2023-04-24T10:45:05;9;9;
50321;PMS5003;36227;53.366;-1.426;2023-04-24T10:47:28;7;7;
50321;PMS5003;36227;53.366;-1.426;2023-04-24T10:49:53;8;8;
50321;PMS5003;36227;53.366;-1.426;2023-04-24T10:52:19;7;7;
50321;PMS5003;36227;53.366;-1.426;2023-04-24T10:54:45;9;7;
50321;PMS5003;36227;53.366;-1.426;2023-04-24T10:59:35;11;10;
50321;PMS5003;36227;53.366;-1.426;2023-04-24T11:02:01;14;11;
50321;PMS5003;36227;53.366;-1.426;2023-04-24T11:04:30;11;8;
50321;PMS5003;36227;53.366;-1.426;2023-04-24T11:06:51;10;10;
50321;PMS5003;36227;53.366;-1.426;2023-04-24T11:09:17;8;8;
50321;PMS5003;36227;53.366;-1.426;2023-04-24T11:11:44;7;7;
50321;PMS5003;36227;53.366;-1.426;2023-04-24T11:14:08;9;8;
50321;PMS5003;36227;53.366;-1.426;2023-04-24T11:16:34;10;8;
50321;PMS5003;36227;53.366;-1.426;2023-04-24T11:19:00;10;9;
50321;PMS5003;36227;53.366;-1.426;2023-04-24T11:21:24;8;6;
50321;PMS5003;36227;53.366;-1.426;2023-04-24T11:23:50;8;8;
50321;PMS5003;36227;53.366;-1.426;2023-04-24T11:26:17;8;7;
50321;PMS5003;36227;53.366;-1.426;2023-04-24T11:28:46;11;9;
50321;PMS5003;36227;53.366;-1.426;2023-04-24T11:33:31;11;9;
50321;PMS5003;36227;53.366;-1.426;2023-04-24T11:35:56;12;9;
50321;PMS5003;36227;53.366;-1.426;2023-04-24T11:38:22;11;9;
50321;PMS5003;36227;53.366;-1.426;2023-04-24T11:40:47;10;8;
50321;PMS5003;36227;53.366;-1.426;2023-04-24T11:43:12;9;9;
50321;PMS5003;36227;53.366;-1.426;2023-04-24T11:45:37;9;9;
50321;PMS5003;36227;53.366;-1.426;2023-04-24T11:48:03;8;6;
50321;PMS5003;36227;53.366;-1.426;2023-04-24T11:50:28;8;8;
50321;PMS5003;36227;53.366;-1.426;2023-04-24T11:52:54;6;5;
50321;PMS5003;36227;53.366;-1.426;2023-04-24T11:55:23;8;8;
50321;PMS5003;36227;53.366;-1.426;2023-04-24T11:57:45;6;4;
50321;PMS5003;36227;53.366;-1.426;2023-04-24T12:00:15;5;5;
50321;PMS5003;36227;53.366;-1.426;2023-04-24T12:02:35;10;8;
50321;PMS5003;36227;53.366;-1.426;2023-04-24T12:05:01;9;8;
50321;PMS5003;36227;53.366;-1.426;2023-04-24T12:07:26;8;8;
50321;PMS5003;36227;53.366;-1.426;2023-04-24T12:09:55;4;4;
50321;PMS5003;36227;53.366;-1.426;2023-04-24T12:12:18;11;10;
50321;PMS5003;36227;53.366;-1.426;2023-04-24T12:14:44;5;4;
50321;PMS5003;36227;53.366;-1.426;2023-04-24T12:17:08;10;9;
50321;PMS5003;36227;53.366;-1.426;2023-04-24T12:19:34;9;9;
50321;PMS5003;36227;53.366;-1.426;2023-04-24T12:21:59;6;5;
50321;PMS5003;36227;53.366;-1.426;2023-04-24T12:24:24;7;6;
50321;PMS5003;36227;53.366;-1.426;2023-04-24T12:26:50;6;6;
50321;PMS5003;36227;53.366;-1.426;2023-04-24T12:29:19;7;6;
50321;PMS5003;36227;53.366;-1.426;2023-04-24T12:31:40;5;5;
50321;PMS5003;36227;53.366;-1.426;2023-04-24T12:36:31;6;6;
50321;PMS5003;36227;53.366;-1.426;2023-04-24T12:38:56;6;6;
50321;PMS5003;36227;53.366;-1.426;2023-04-24T12:41:22;7;6;
50321;PMS5003;36227;53.366;-1.426;2023-04-24T12:43:51;5;4;
50321;PMS5003;36227;53.366;-1.426;2023-04-24T12:46:12;6;6;
50321;PMS5003;36227;53.366;-1.426;2023-04-24T12:48:38;8;8;
50321;PMS5003;36227;53.366;-1.426;2023-04-24T12:51:03;7;7;
50321;PMS5003;36227;53.366;-1.426;2023-04-24T12:53:28;10;7;
50321;PMS5003;36227;53.366;-1.426;2023-04-24T12:55:54;7;6;
50321;PMS5003;36227;53.366;-1.426;2023-04-24T12:58:19;6;6;
50321;PMS5003;36227;53.366;-1.426;2023-04-24T13:00:44;4;4;
50321;PMS5003;36227;53.366;-1.426;2023-04-24T13:03:09;5;5;
50321;PMS5003;36227;53.366;-1.426;2023-04-24T13:05:34;6;5;
50321;PMS5003;36227;53.366;-1.426;2023-04-24T13:08:00;8;8;
50321;PMS5003;36227;53.366;-1.426;2023-04-24T13:10:25;5;5;
50321;PMS5003;36227;53.366;-1.426;2023-04-24T13:12:50;7;5;
50321;PMS5003;36227;53.366;-1.426;2023-04-24T13:15:15;4;4;
50321;PMS5003;36227;53.366;-1.426;2023-04-24T13:17:41;6;6;
50321;PMS5003;36227;53.366;-1.426;2023-04-24T13:20:07;8;8;
50321;PMS5003;36227;53.366;-1.426;2023-04-24T13:22:32;7;6;
50321;PMS5003;36227;53.366;-1.426;2023-04-24T13:24:57;7;6;
50321;PMS5003;36227;53.366;-1.426;2023-04-24T13:27:22;7;7;
50321;PMS5003;36227;53.366;-1.426;2023-04-24T13:29:47;7;6;
50321;PMS5003;36227;53.366;-1.426;2023-04-24T13:32:13;9;8;
50321;PMS5003;36227;53.366;-1.426;2023-04-24T13:34:38;7;7;
50321;PMS5003;36227;53.366;-1.426;2023-04-24T13:37:03;10;7;
50321;PMS5003;36227;53.366;-1.426;2023-04-24T13:39:28;8;8;
50321;PMS5003;36227;53.366;-1.426;2023-04-24T13:41:54;12;9;
50321;PMS5003;36227;53.366;-1.426;2023-04-24T13:44:19;10;7;
50321;PMS5003;36227;53.366;-1.426;2023-04-24T13:46:44;9;9;
50321;PMS5003;36227;53.366;-1.426;2023-04-24T13:49:09;7;6;
50321;PMS5003;36227;53.366;-1.426;2023-04-24T13:51:35;7;6;
50321;PMS5003;36227;53.366;-1.426;2023-04-24T13:54:00;7;6;
50321;PMS5003;36227;53.366;-1.426;2023-04-24T13:56:25;6;6;
50321;PMS5003;36227;53.366;-1.426;2023-04-24T13:58:51;6;5;
50321;PMS5003;36227;53.366;-1.426;2023-04-24T14:01:15;6;6;
50321;PMS5003;36227;53.366;-1.426;2023-04-24T14:03:41;6;6;
50321;PMS5003;36227;53.366;-1.426;2023-04-24T14:06:06;9;8;
50321;PMS5003;36227;53.366;-1.426;2023-04-24T14:08:31;8;7;
50321;PMS5003;36227;53.366;-1.426;2023-04-24T14:10:56;12;8;
50321;PMS5003;36227;53.366;-1.426;2023-04-24T14:13:22;15;14;
50321;PMS5003;36227;53.366;-1.426;2023-04-24T14:15:47;7;6;
50321;PMS5003;36227;53.366;-1.426;2023-04-24T14:18:13;8;6;
50321;PMS5003;36227;53.366;-1.426;2023-04-24T14:20:39;9;9;
50321;PMS5003;36227;53.366;-1.426;2023-04-24T14:23:04;12;10;
50321;PMS5003;36227;53.366;-1.426;2023-04-24T14:25:30;8;8;
50321;PMS5003;36227;53.366;-1.426;2023-04-24T14:27:56;12;11;
50321;PMS5003;36227;53.366;-1.426;2023-04-24T14:30:22;10;9;
50321;PMS5003;36227;53.366;-1.426;2023-04-24T14:32:47;8;8;
50321;PMS5003;36227;53.366;-1.426;2023-04-24T14:35:13;6;5;
50321;PMS5003;36227;53.366;-1.426;2023-04-24T14:37:38;4;4;
50321;PMS5003;36227;53.366;-1.426;2023-04-24T14:40:03;4;4;
50321;PMS5003;36227;53.366;-1.426;2023-04-24T14:42:28;4;4;
50321;PMS5003;36227;53.366;-1.426;2023-04-24T14:44:54;3;3;
50321;PMS5003;36227;53.366;-1.426;2023-04-24T14:47:20;6;5;
50321;PMS5003;36227;53.366;-1.426;2023-04-24T14:49:45;6;5;
50321;PMS5003;36227;53.366;-1.426;2023-04-24T14:52:10;6;6;
50321;PMS5003;36227;53.366;-1.426;2023-04-24T14:54:36;7;5;
50321;PMS5003;36227;53.366;-1.426;2023-04-24T14:57:01;4;3;
50321;PMS5003;36227;53.366;-1.426;2023-04-24T14:59:27;3;3;
50321;PMS5003;36227;53.366;-1.426;2023-04-24T15:01:52;7;7;
50321;PMS5003;36227;53.366;-1.426;2023-04-24T15:04:17;6;5;
50321;PMS5003;36227;53.366;-1.426;2023-04-24T15:06:43;6;5;
50321;PMS5003;36227;53.366;-1.426;2023-04-24T15:09:08;5;4;
50321;PMS5003;36227;53.366;-1.426;2023-04-24T15:11:33;5;5;
50321;PMS5003;36227;53.366;-1.426;2023-04-24T15:13:59;5;5;
50321;PMS5003;36227;53.366;-1.426;2023-04-24T15:16:24;6;6;
50321;PMS5003;36227;53.366;-1.426;2023-04-24T15:18:50;9;8;
50321;PMS5003;36227;53.366;-1.426;2023-04-24T15:21:15;7;7;
50321;PMS5003;36227;53.366;-1.426;2023-04-24T15:23:41;7;6;
50321;PMS5003;36227;53.366;-1.426;2023-04-24T15:26:06;7;7;
50321;PMS5003;36227;53.366;-1.426;2023-04-24T15:28:31;9;8;
50321;PMS5003;36227;53.366;-1.426;2023-04-24T15:30:56;6;6;
50321;PMS5003;36227;53.366;-1.426;2023-04-24T15:33:22;7;6;
50321;PMS5003;36227;53.366;-1.426;2023-04-24T15:35:47;8;7;
50321;PMS5003;36227;53.366;-1.426;2023-04-24T15:38:13;8;7;
50321;PMS5003;36227;53.366;-1.426;2023-04-24T15:40:38;7;6;
50321;PMS5003;36227;53.366;-1.426;2023-04-24T15:43:03;8;5;
50321;PMS5003;36227;53.366;-1.426;2023-04-24T15:45:29;7;7;
50321;PMS5003;36227;53.366;-1.426;2023-04-24T15:47:54;5;5;
50321;PMS5003;36227;53.366;-1.426;2023-04-24T15:50:19;9;6;
50321;PMS5003;36227;53.366;-1.426;2023-04-24T15:52:45;8;7;
50321;PMS5003;36227;53.366;-1.426;2023-04-24T15:55:11;11;10;
50321;PMS5003;36227;53.366;-1.426;2023-04-24T15:57:36;9;6;
50321;PMS5003;36227;53.366;-1.426;2023-04-24T16:00:01;6;5;
50321;PMS5003;36227;53.366;-1.426;2023-04-24T16:02:27;14;11;
50321;PMS5003;36227;53.366;-1.426;2023-04-24T16:04:52;11;8;
50321;PMS5003;36227;53.366;-1.426;2023-04-24T16:07:18;8;7;
50321;PMS5003;36227;53.366;-1.426;2023-04-24T16:09:43;9;8;
50321;PMS5003;36227;53.366;-1.426;2023-04-24T16:12:08;7;7;
50321;PMS5003;36227;53.366;-1.426;2023-04-24T16:14:34;8;4;
50321;PMS5003;36227;53.366;-1.426;2023-04-24T16:16:59;9;5;
50321;PMS5003;36227;53.366;-1.426;2023-04-24T16:19:25;7;7;
50321;PMS5003;36227;53.366;-1.426;2023-04-24T16:21:51;6;6;
50321;PMS5003;36227;53.366;-1.426;2023-04-24T16:24:16;9;9;